createdAt,value
2018-12-06T00:01:53.624Z,100962.69
2018-12-06T00:04:22.371Z,100954.12
2018-12-06T00:06:51.075Z,100943.23
2018-12-06T00:09:19.830Z,100945.55
2018-12-06T00:11:48.590Z,100942.68
2018-12-06T00:14:17.311Z,100937.73
2018-12-06T00:16:55.215Z,100921.87
2018-12-06T00:19:23.981Z,100926.35
2018-12-06T00:21:52.746Z,100916.91
2018-12-06T00:24:21.437Z,100916.45
2018-12-06T00:26:50.167Z,100912.83
2018-12-06T00:29:18.827Z,100897.03
2018-12-06T00:31:47.579Z,100892.97
2018-12-06T00:34:16.306Z,100899.64
2018-12-06T00:36:45.315Z,100825.42
2018-12-06T00:39:14.014Z,100897.97
2018-12-06T00:41:42.750Z,100895.30
2018-12-06T00:44:11.487Z,100888.47
2018-12-06T00:46:40.242Z,100889.13
2018-12-06T00:49:08.994Z,100884.50
2018-12-06T00:51:37.651Z,100886.05
2018-12-06T00:54:06.381Z,100881.37
2018-12-06T00:56:35.050Z,100876.87
2018-12-06T00:59:03.771Z,100879.84
2018-12-06T01:01:32.486Z,100879.44
2018-12-06T01:04:01.198Z,100875.94
2018-12-06T01:06:29.987Z,100873.23
2018-12-06T01:08:58.742Z,100866.20
2018-12-06T01:11:27.458Z,100860.97
2018-12-06T01:13:56.187Z,100858.77
2018-12-06T01:16:24.922Z,100862.12
2018-12-06T01:18:53.726Z,100861.46
2018-12-06T01:21:22.382Z,100866.77
2018-12-06T01:23:51.055Z,100868.30
2018-12-06T01:26:19.826Z,100870.50
2018-12-06T01:28:48.559Z,100863.86
2018-12-06T01:31:17.227Z,100871.44
2018-12-06T01:33:45.889Z,100870.98
2018-12-06T01:36:14.542Z,100871.42
2018-12-06T01:38:43.271Z,100862.35
2018-12-06T01:41:11.974Z,100860.13
2018-12-06T01:43:40.698Z,100863.41
2018-12-06T01:46:09.421Z,100864.36
2018-12-06T01:48:38.340Z,100874.21
2018-12-06T01:51:07.043Z,100863.14
2018-12-06T01:53:35.719Z,100864.36
2018-12-06T01:56:04.430Z,100853.13
2018-12-06T01:58:33.141Z,100848.42
2018-12-06T02:01:01.886Z,100853.13
2018-12-06T02:03:30.547Z,100840.79
2018-12-06T02:05:59.194Z,100843.47
2018-12-06T02:08:27.931Z,100839.53
2018-12-06T02:10:56.648Z,100844.88
2018-12-06T02:13:25.370Z,100835.97
2018-12-06T02:15:54.134Z,100839.27
2018-12-06T02:18:22.806Z,100835.41
2018-12-06T02:20:51.498Z,100836.11
2018-12-06T02:23:20.230Z,100826.74
2018-12-06T02:25:48.969Z,100836.44
2018-12-06T02:28:17.671Z,100834.16
2018-12-06T02:30:46.377Z,100834.45
2018-12-06T02:33:15.179Z,100842.19
2018-12-06T02:35:43.943Z,100836.56
2018-12-06T02:38:12.691Z,100837.73
2018-12-06T02:40:41.414Z,100836.44
2018-12-06T02:43:10.126Z,100836.11
2018-12-06T02:45:38.847Z,100838.10
2018-12-06T02:48:07.760Z,100839.30
2018-12-06T02:50:36.543Z,100834.69
2018-12-06T02:53:05.414Z,100830.06
2018-12-06T02:55:34.078Z,100828.05
2018-12-06T02:58:02.762Z,100830.41
2018-12-06T03:00:31.499Z,100830.96
2018-12-06T03:03:00.241Z,100820.60
2018-12-06T03:05:29.006Z,100820.98
2018-12-06T03:07:57.707Z,100820.25
2018-12-06T03:10:26.420Z,100814.35
2018-12-06T03:12:55.143Z,100807.26
2018-12-06T03:15:23.857Z,100804.05
2018-12-06T03:17:54.504Z,100800.64
2018-12-06T03:20:23.264Z,100795.63
2018-12-06T03:22:51.982Z,100785.42
2018-12-06T03:25:20.708Z,100781.89
2018-12-06T03:27:49.387Z,100776.67
2018-12-06T03:30:18.185Z,100769.63
2018-12-06T03:32:46.896Z,100768.30
2018-12-06T03:35:15.639Z,100760.65
2018-12-06T03:37:44.295Z,100761.41
2018-12-06T03:40:13.115Z,100761.47
2018-12-06T03:42:41.840Z,100758.05
2018-12-06T03:45:10.595Z,100753.55
2018-12-06T03:47:39.310Z,100753.91
2018-12-06T03:50:08.032Z,100749.91
2018-12-06T03:52:36.894Z,100751.64
2018-12-06T03:55:05.602Z,100752.53
2018-12-06T03:57:34.280Z,100765.05
2018-12-06T04:00:03.152Z,100767.72
2018-12-06T04:02:31.911Z,100773.75
2018-12-06T04:05:00.554Z,100770.84
2018-12-06T04:07:29.268Z,100779.80
2018-12-06T04:09:57.984Z,100775.81
2018-12-06T04:12:26.776Z,100785.50
2018-12-06T04:14:55.443Z,100775.20
2018-12-06T04:17:24.151Z,100775.44
2018-12-06T04:19:52.847Z,100771.43
2018-12-06T04:22:21.499Z,100767.97
2018-12-06T04:24:50.223Z,100766.94
2018-12-06T04:27:18.943Z,100766.80
2018-12-06T04:29:47.594Z,100771.05
2018-12-06T04:32:17.560Z,100769.65
2018-12-06T04:34:46.500Z,100773.34
2018-12-06T04:37:15.295Z,100786.30
2018-12-06T04:39:43.963Z,100786.17
2018-12-06T04:42:12.716Z,100784.90
2018-12-06T04:44:42.226Z,100779.22
2018-12-06T04:47:10.944Z,100787.27
2018-12-06T04:49:39.659Z,100783.81
2018-12-06T04:52:08.512Z,100777.27
2018-12-06T04:54:37.208Z,100773.06
2018-12-06T04:57:05.919Z,100765.83
2018-12-06T04:59:34.686Z,100761.81
2018-12-06T05:02:03.467Z,100764.72
2018-12-06T05:04:32.248Z,100774.95
2018-12-06T05:07:01.647Z,100780.80
2018-12-06T05:09:30.327Z,100778.18
2018-12-06T05:11:59.158Z,100776.98
2018-12-06T05:14:27.807Z,100770.67
2018-12-06T05:16:56.541Z,100769.41
2018-12-06T05:19:25.267Z,100767.39
2018-12-06T05:21:53.910Z,100757.59
2018-12-06T05:24:22.671Z,100768.64
2018-12-06T05:26:51.435Z,100771.86
2018-12-06T05:29:21.119Z,100770.13
2018-12-06T05:31:49.845Z,100770.72
2018-12-06T05:34:18.502Z,100771.18
2018-12-06T05:36:47.231Z,100774.00
2018-12-06T05:39:16.003Z,100777.82
2018-12-06T05:41:44.739Z,100776.86
2018-12-06T05:44:13.454Z,100776.86
2018-12-06T05:46:42.199Z,100776.32
2018-12-06T05:49:11.027Z,100783.16
2018-12-06T05:51:40.442Z,100786.88
2018-12-06T05:54:09.187Z,100797.44
2018-12-06T05:56:37.931Z,100810.42
2018-12-06T05:59:06.642Z,100809.42
2018-12-06T06:01:35.362Z,100807.69
2018-12-06T06:04:04.155Z,100812.73
2018-12-06T06:06:32.806Z,100812.73
2018-12-06T06:09:01.471Z,100812.02
2018-12-06T06:11:30.514Z,100824.06
2018-12-06T06:13:59.280Z,100819.05
2018-12-06T06:16:27.946Z,100812.63
2018-12-06T06:18:56.671Z,100812.05
2018-12-06T06:21:25.391Z,100815.48
2018-12-06T06:23:54.193Z,100817.03
2018-12-06T06:26:23.047Z,100813.63
2018-12-06T06:28:51.734Z,100818.66
2018-12-06T06:31:20.466Z,100819.75
2018-12-06T06:33:49.218Z,100818.08
2018-12-06T06:36:17.971Z,100820.11
2018-12-06T06:38:46.786Z,100821.43
2018-12-06T06:41:15.534Z,100821.73
2018-12-06T06:43:44.222Z,100803.50
2018-12-06T06:46:12.902Z,100803.50
2018-12-06T06:48:41.622Z,100807.83
2018-12-06T06:51:10.339Z,100805.64
2018-12-06T06:53:39.075Z,100799.86
2018-12-06T06:56:07.899Z,100798.05
2018-12-06T06:58:36.570Z,100786.33
2018-12-06T07:01:05.282Z,100793.23
2018-12-06T07:03:33.995Z,100794.52
2018-12-06T07:06:02.719Z,100800.72
2018-12-06T07:08:31.387Z,100813.44
2018-12-06T07:11:00.055Z,100813.34
2018-12-06T07:13:28.735Z,100827.03
2018-12-06T07:15:57.386Z,100836.13
2018-12-06T07:18:26.098Z,100845.95
2018-12-06T07:20:54.782Z,100850.63
2018-12-06T07:23:23.552Z,100857.88
2018-12-06T07:25:52.343Z,100863.91
2018-12-06T07:28:21.051Z,100866.67
2018-12-06T07:30:49.834Z,100878.48
2018-12-06T07:33:18.562Z,100889.64
2018-12-06T07:35:47.283Z,100889.66
2018-12-06T07:38:15.974Z,100894.87
2018-12-06T07:40:44.630Z,100895.81
2018-12-06T07:43:13.275Z,100898.97
2018-12-06T07:45:41.934Z,100901.76
2018-12-06T07:48:10.668Z,100896.31
2018-12-06T07:50:39.326Z,100896.45
2018-12-06T07:53:08.042Z,100894.89
2018-12-06T07:55:36.699Z,100902.64
2018-12-06T07:58:05.351Z,100905.19
2018-12-06T08:00:34.150Z,100904.56
2018-12-06T08:03:02.838Z,100908.19
2018-12-06T08:05:31.511Z,100903.81
2018-12-06T08:08:00.175Z,100900.86
2018-12-06T08:10:28.839Z,100903.05
2018-12-06T08:12:57.527Z,100903.05
2018-12-06T08:15:26.207Z,100900.50
2018-12-06T08:17:54.955Z,100903.81
2018-12-06T08:20:23.671Z,100912.54
2018-12-06T08:22:52.391Z,100911.80
2018-12-06T08:25:21.058Z,100911.39
2018-12-06T08:27:49.712Z,100918.98
2018-12-06T08:30:18.362Z,100924.76
2018-12-06T08:32:47.091Z,100930.33
2018-12-06T08:35:15.772Z,100933.67
2018-12-06T08:37:44.537Z,100938.48
2018-12-06T08:40:13.202Z,100939.36
2018-12-06T08:42:45.613Z,100936.88
2018-12-06T08:45:12.664Z,100937.28
2018-12-06T08:47:41.434Z,100938.27
2018-12-06T08:50:10.150Z,100949.61
2018-12-06T08:52:39.332Z,100939.92
2018-12-06T08:55:08.122Z,100941.90
2018-12-06T08:57:36.834Z,100938.44
2018-12-06T09:00:07.482Z,100934.27
2018-12-06T09:02:36.163Z,100933.62
2018-12-06T09:05:05.654Z,100934.08
2018-12-06T09:07:34.435Z,100935.18
2018-12-06T09:10:03.398Z,100924.52
2018-12-06T09:12:32.134Z,100916.98
2018-12-06T09:15:00.885Z,100908.05
2018-12-06T09:17:29.634Z,100902.25
2018-12-06T09:19:58.368Z,100892.88
2018-12-06T09:22:27.098Z,100882.94
2018-12-06T09:24:55.818Z,100866.31
2018-12-06T09:27:24.545Z,100872.50
2018-12-06T09:29:53.274Z,100869.06
2018-12-06T09:32:22.075Z,100875.15
2018-12-06T09:34:50.738Z,100881.12
2018-12-06T09:37:19.447Z,100878.72
2018-12-06T09:39:57.098Z,100890.09
2018-12-06T09:42:25.819Z,100899.62
2018-12-06T09:44:54.473Z,100895.34
2018-12-06T09:47:23.269Z,100897.54
2018-12-06T09:49:51.993Z,100895.34
2018-12-06T09:52:20.787Z,100896.14
2018-12-06T09:54:49.544Z,100893.30
2018-12-06T09:57:18.263Z,100893.81
2018-12-06T09:59:47.143Z,100893.51
2018-12-06T10:02:15.799Z,100891.47
2018-12-06T10:04:44.514Z,100897.85
2018-12-06T10:07:13.231Z,100891.67
2018-12-06T10:09:41.950Z,100893.11
2018-12-06T10:12:10.690Z,100885.45
2018-12-06T10:14:39.425Z,100893.50
2018-12-06T10:17:09.226Z,100889.68
2018-12-06T10:19:37.937Z,100886.36
2018-12-06T10:22:06.698Z,100890.55
2018-12-06T10:24:35.490Z,100891.67
2018-12-06T10:27:04.214Z,100890.48
2018-12-06T10:29:32.930Z,100880.27
2018-12-06T10:32:01.714Z,100873.05
2018-12-06T10:34:30.424Z,100868.70
2018-12-06T10:36:59.151Z,100866.66
2018-12-06T10:39:27.877Z,100865.84
2018-12-06T10:41:56.588Z,100866.98
2018-12-06T10:44:28.971Z,100867.70
2018-12-06T10:46:57.750Z,100868.67
2018-12-06T10:49:26.531Z,100872.91
2018-12-06T10:51:55.264Z,100870.17
2018-12-06T10:54:24.003Z,100873.80
2018-12-06T10:56:52.748Z,100879.87
2018-12-06T10:59:21.466Z,100884.89
2018-12-06T11:01:55.603Z,100884.98
2018-12-06T11:04:28.462Z,100883.90
2018-12-06T11:06:57.212Z,100884.11
2018-12-06T11:09:25.934Z,100894.75
2018-12-06T11:11:54.735Z,100902.20
2018-12-06T11:14:23.495Z,100900.20
2018-12-06T11:16:52.239Z,100893.94
2018-12-06T11:19:20.943Z,100898.31
2018-12-06T11:21:49.654Z,100897.94
2018-12-06T11:24:19.126Z,100892.99
2018-12-06T11:26:47.795Z,100894.76
2018-12-06T11:29:16.519Z,100893.41
2018-12-06T11:31:45.185Z,100894.72
2018-12-06T11:34:13.942Z,100884.16
2018-12-06T11:36:42.597Z,100873.03
2018-12-06T11:39:11.323Z,100875.52
2018-12-06T11:41:43.316Z,100877.13
2018-12-06T11:44:10.751Z,100878.27
2018-12-06T11:46:39.474Z,100884.13
2018-12-06T11:49:08.226Z,100879.80
2018-12-06T11:51:36.938Z,100886.77
2018-12-06T11:54:05.695Z,100888.37
2018-12-06T11:56:34.411Z,100890.14
2018-12-06T11:59:03.195Z,100885.48
2018-12-06T12:01:31.930Z,100876.02
2018-12-06T12:04:00.614Z,100880.34
2018-12-06T12:06:29.350Z,100810.44
2018-12-06T12:08:58.019Z,100877.78
2018-12-06T12:11:26.746Z,100874.98
2018-12-06T12:13:55.463Z,100874.94
2018-12-06T12:16:24.184Z,100880.45
2018-12-06T12:18:52.883Z,100885.53
2018-12-06T12:21:21.619Z,100876.34
2018-12-06T12:23:50.301Z,100876.05
2018-12-06T12:26:19.038Z,100864.99
2018-12-06T12:28:47.706Z,100856.42
2018-12-06T12:31:17.087Z,100856.20
2018-12-06T12:33:45.826Z,100854.92
2018-12-06T12:36:14.523Z,100860.34
2018-12-06T12:38:43.267Z,100865.94
2018-12-06T12:41:13.018Z,100866.88
2018-12-06T12:43:41.743Z,100869.81
2018-12-06T12:46:10.542Z,100870.34
2018-12-06T12:48:39.212Z,100876.77
2018-12-06T12:51:07.932Z,100873.09
2018-12-06T12:53:36.653Z,100887.41
2018-12-06T12:56:05.437Z,100887.86
2018-12-06T12:58:34.122Z,100891.08
2018-12-06T13:01:02.842Z,100889.94
2018-12-06T13:03:31.563Z,100889.48
2018-12-06T13:06:00.226Z,100892.53
2018-12-06T13:08:28.886Z,100890.94
2018-12-06T13:10:57.602Z,100907.68
2018-12-06T13:13:26.398Z,100900.93
2018-12-06T13:15:56.058Z,100909.48
2018-12-06T13:18:24.784Z,100910.31
2018-12-06T13:20:53.642Z,100899.72
2018-12-06T13:23:22.386Z,100897.61
2018-12-06T13:25:51.094Z,100887.78
2018-12-06T13:28:19.806Z,100905.32
2018-12-06T13:30:48.531Z,100901.86
2018-12-06T13:33:17.274Z,100909.64
2018-12-06T13:35:45.987Z,100904.48
2018-12-06T13:38:15.421Z,100903.41
2018-12-06T13:40:44.205Z,100895.20
2018-12-06T13:43:12.894Z,100899.88
2018-12-06T13:45:41.654Z,100893.83
2018-12-06T13:48:10.310Z,100886.66
2018-12-06T13:50:39.115Z,100881.22
2018-12-06T13:53:07.873Z,100873.18
2018-12-06T13:55:36.566Z,100874.61
2018-12-06T13:58:05.323Z,100875.02
2018-12-06T14:00:34.870Z,100873.53
2018-12-06T14:03:03.775Z,100871.23
2018-12-06T14:05:32.506Z,100877.13
2018-12-06T14:08:01.228Z,100880.65
2018-12-06T14:10:29.994Z,100883.23
2018-12-06T14:12:58.667Z,100880.36
2018-12-06T14:15:27.389Z,100879.81
2018-12-06T14:17:56.133Z,100868.86
2018-12-06T14:20:24.839Z,100872.22
2018-12-06T14:22:54.023Z,100879.94
2018-12-06T14:25:22.903Z,100880.27
2018-12-06T14:27:51.623Z,100874.25
2018-12-06T14:30:20.371Z,100878.09
2018-12-06T14:32:49.158Z,100878.05
2018-12-06T14:35:17.870Z,100875.91
2018-12-06T14:37:46.572Z,100873.70
2018-12-06T14:40:15.310Z,100882.41
2018-12-06T14:42:44.042Z,100880.74
2018-12-06T14:45:13.555Z,100876.42
2018-12-06T14:47:42.259Z,100876.16
2018-12-06T14:50:10.974Z,100880.00
2018-12-06T14:52:39.694Z,100882.11
2018-12-06T14:55:08.581Z,100881.57
2018-12-06T14:57:37.295Z,100889.25
2018-12-06T15:00:08.255Z,100892.80
2018-12-06T15:02:37.032Z,100890.05
2018-12-06T15:05:07.685Z,100894.79
2018-12-06T15:07:36.419Z,100899.50
2018-12-06T15:10:06.398Z,100901.26
2018-12-06T15:12:35.166Z,100902.13
2018-12-06T15:15:04.736Z,100905.52
2018-12-06T15:17:33.503Z,100901.92
2018-12-06T15:20:02.298Z,100898.60
2018-12-06T15:22:31.008Z,100892.71
2018-12-06T15:25:00.120Z,100895.36
2018-12-06T15:28:00.022Z,100892.03
2018-12-06T15:30:28.743Z,100894.05
2018-12-06T15:32:57.444Z,100901.25
2018-12-06T15:35:26.163Z,100895.36
2018-12-06T15:37:54.864Z,100892.36
2018-12-06T15:40:23.563Z,100893.96
2018-12-06T15:42:54.040Z,100890.59
2018-12-06T15:45:22.894Z,100894.44
2018-12-06T15:47:51.623Z,100895.39
2018-12-06T15:50:20.340Z,100896.26
2018-12-06T15:52:49.006Z,100899.72
2018-12-06T15:55:17.814Z,100893.38
2018-12-06T15:57:47.010Z,100894.65
2018-12-06T16:00:16.598Z,100892.92
2018-12-06T16:02:45.323Z,100890.39
2018-12-06T16:05:14.047Z,100895.55
2018-12-06T16:07:42.787Z,100889.81
2018-12-06T16:10:11.510Z,100888.45
2018-12-06T16:12:40.248Z,100886.31
2018-12-06T16:15:09.138Z,100888.56
2018-12-06T16:17:43.937Z,100884.27
2018-12-06T16:20:15.507Z,100877.78
2018-12-06T16:22:46.094Z,100880.31
2018-12-06T16:25:14.786Z,100876.45
2018-12-06T16:27:43.507Z,100871.55
2018-12-06T16:30:12.260Z,100878.84
2018-12-06T16:32:40.979Z,100878.42
2018-12-06T16:35:09.906Z,100874.78
2018-12-06T16:37:38.610Z,100874.89
2018-12-06T16:40:07.384Z,100872.38
2018-12-06T16:42:36.094Z,100874.16
2018-12-06T16:45:05.575Z,100884.87
2018-12-06T16:47:34.304Z,100885.64
2018-12-06T16:50:03.323Z,100879.84
2018-12-06T16:52:32.110Z,100879.75
2018-12-06T16:55:00.798Z,100881.32
2018-12-06T16:57:29.514Z,100871.02
2018-12-06T16:59:58.228Z,100878.76
2018-12-06T17:02:26.963Z,100878.29
2018-12-06T17:04:55.679Z,100886.81
2018-12-06T17:07:24.454Z,100882.63
2018-12-06T17:09:53.188Z,100880.06
2018-12-06T17:12:22.102Z,100872.72
2018-12-06T17:14:50.859Z,100871.10
2018-12-06T17:17:19.583Z,100863.80
2018-12-06T17:19:48.381Z,100874.45
2018-12-06T17:22:17.038Z,100879.06
2018-12-06T17:24:45.755Z,100868.91
2018-12-06T17:27:14.520Z,100871.08
2018-12-06T17:29:43.198Z,100875.30
2018-12-06T17:32:11.911Z,100870.66
2018-12-06T17:34:41.559Z,100868.09
2018-12-06T17:37:10.269Z,100867.67
2018-12-06T17:39:39.002Z,100872.24
2018-12-06T17:42:07.834Z,100866.77
2018-12-06T17:44:37.696Z,100866.78
2018-12-06T17:47:07.045Z,100866.86
2018-12-06T17:49:35.763Z,100865.95
2018-12-06T17:52:04.559Z,100863.52
2018-12-06T17:54:33.279Z,100872.52
2018-12-06T17:57:02.001Z,100866.89
2018-12-06T17:59:30.767Z,100866.91
2018-12-06T18:01:59.515Z,100859.17
2018-12-06T18:04:28.256Z,100857.40
2018-12-06T18:06:56.980Z,100848.48
2018-12-06T18:09:25.819Z,100843.30
2018-12-06T18:11:54.487Z,100838.20
2018-12-06T18:14:23.155Z,100844.25
2018-12-06T18:16:51.954Z,100841.22
2018-12-06T18:19:20.786Z,100840.42
2018-12-06T18:21:49.494Z,100840.03
2018-12-06T18:24:18.964Z,100833.70
2018-12-06T18:26:47.723Z,100825.69
2018-12-06T18:29:16.506Z,100833.80
2018-12-06T18:31:45.299Z,100830.76
2018-12-06T18:34:14.091Z,100833.72
2018-12-06T18:36:42.814Z,100836.75
2018-12-06T18:39:11.571Z,100834.63
2018-12-06T18:41:40.274Z,100834.23
2018-12-06T18:44:09.056Z,100841.09
2018-12-06T18:46:37.843Z,100843.55
2018-12-06T18:49:06.555Z,100835.05
2018-12-06T18:51:35.283Z,100836.78
2018-12-06T18:54:04.067Z,100832.91
2018-12-06T18:56:32.856Z,100834.61
2018-12-06T18:59:01.675Z,100838.85
2018-12-06T19:01:30.391Z,100842.60
2018-12-06T19:03:59.969Z,100840.52
2018-12-06T19:06:28.680Z,100839.52
2018-12-06T19:08:57.398Z,100835.30
2018-12-06T19:11:26.149Z,100831.43
2018-12-06T19:13:54.883Z,100825.50
2018-12-06T19:16:23.682Z,100766.70
2018-12-06T19:18:52.382Z,100813.50
2018-12-06T19:21:21.109Z,100811.70
2018-12-06T19:23:49.811Z,100812.21
2018-12-06T19:26:19.340Z,100809.97
2018-12-06T19:28:48.051Z,100806.55
2018-12-06T19:31:16.823Z,100819.85
2018-12-06T19:33:45.583Z,100819.46
2018-12-06T19:36:14.319Z,100817.39
2018-12-06T19:38:43.039Z,100816.92
2018-12-06T19:41:11.840Z,100810.56
2018-12-06T19:43:41.557Z,100811.33
2018-12-06T19:46:10.334Z,100809.63
2018-12-06T19:48:39.064Z,100802.44
2018-12-06T19:51:07.776Z,100801.22
2018-12-06T19:53:36.538Z,100804.18
2018-12-06T19:56:05.354Z,100802.34
2018-12-06T19:58:34.076Z,100797.23
2018-12-06T20:01:02.824Z,100795.39
2018-12-06T20:03:32.550Z,100789.10
2018-12-06T20:06:01.331Z,100800.63
2018-12-06T20:08:30.060Z,100781.89
2018-12-06T20:10:58.802Z,100785.78
2018-12-06T20:13:27.598Z,100782.02
2018-12-06T20:15:56.331Z,100776.56
2018-12-06T20:18:25.253Z,100763.64
2018-12-06T20:20:54.043Z,100768.81
2018-12-06T20:23:22.875Z,100755.52
2018-12-06T20:25:51.696Z,100752.91
2018-12-06T20:28:26.329Z,100743.91
2018-12-06T20:30:51.011Z,100739.25
2018-12-06T20:33:19.739Z,100748.95
2018-12-06T20:35:48.510Z,100754.08
2018-12-06T20:38:17.292Z,100745.57
2018-12-06T20:40:46.111Z,100738.77
2018-12-06T20:43:14.836Z,100738.72
2018-12-06T20:45:43.592Z,100739.19
2018-12-06T20:48:12.268Z,100733.58
2018-12-06T20:50:41.043Z,100728.83
2018-12-06T20:53:09.710Z,100717.81
2018-12-06T20:55:38.479Z,100719.13
2018-12-06T20:58:14.679Z,100721.59
2018-12-06T21:00:37.932Z,100717.78
2018-12-06T21:03:06.754Z,100724.67
2018-12-06T21:05:35.551Z,100719.19
2018-12-06T21:08:04.349Z,100719.23
2018-12-06T21:10:33.039Z,100717.55
2018-12-06T21:13:02.202Z,100717.95
2018-12-06T21:15:30.912Z,100713.66
2018-12-06T21:17:59.622Z,100701.73
2018-12-06T21:20:28.466Z,100695.70
2018-12-06T21:22:58.027Z,100706.34
2018-12-06T21:25:26.770Z,100703.38
2018-12-06T21:27:55.507Z,100691.08
2018-12-06T21:30:24.262Z,100693.98
2018-12-06T21:32:54.077Z,100700.33
2018-12-06T21:35:22.874Z,100707.61
2018-12-06T21:37:51.854Z,100708.88
2018-12-06T21:40:20.700Z,100703.80
2018-12-06T21:42:49.457Z,100698.73
2018-12-06T21:45:18.203Z,100695.55
2018-12-06T21:47:48.027Z,100702.85
2018-12-06T21:50:16.792Z,100697.83
2018-12-06T21:52:45.507Z,100701.22
2018-12-06T21:55:14.178Z,100701.19
2018-12-06T21:57:42.902Z,100705.84
2018-12-06T22:00:11.938Z,100709.22
2018-12-06T22:02:40.799Z,100690.12
2018-12-06T22:05:09.571Z,100700.86
2018-12-06T22:07:38.391Z,100694.02
2018-12-06T22:10:08.218Z,100699.59
2018-12-06T22:12:36.939Z,100698.75
2018-12-06T22:15:06.039Z,100695.43
2018-12-06T22:17:34.702Z,100686.90
2018-12-06T22:20:03.763Z,100695.84
2018-12-06T22:22:32.590Z,100687.14
2018-12-06T22:25:01.310Z,100685.86
2018-12-06T22:27:30.006Z,100676.81
2018-12-06T22:29:58.716Z,100680.33
2018-12-06T22:32:27.572Z,100682.86
2018-12-06T22:34:56.432Z,100684.10
2018-12-06T22:37:25.156Z,100679.42
2018-12-06T22:39:53.853Z,100676.37
2018-12-06T22:42:22.567Z,100679.45
2018-12-06T22:44:57.631Z,100678.21
2018-12-06T22:47:27.353Z,100682.61
2018-12-06T22:49:56.071Z,100684.94
2018-12-06T22:52:24.793Z,100683.28
2018-12-06T22:54:53.504Z,100678.27
2018-12-06T22:57:22.206Z,100676.39
2018-12-06T22:59:50.947Z,100676.20
2018-12-06T23:02:19.666Z,100673.91
2018-12-06T23:04:48.404Z,100670.55
2018-12-06T23:07:18.082Z,100680.70
2018-12-06T23:09:46.839Z,100684.48
2018-12-06T23:12:15.552Z,100674.87
2018-12-06T23:14:44.258Z,100669.77
2018-12-06T23:17:12.987Z,100662.95
2018-12-06T23:19:41.718Z,100650.57
2018-12-06T23:22:10.479Z,100648.94
2018-12-06T23:24:39.287Z,100645.41
2018-12-06T23:27:08.000Z,100645.55
2018-12-06T23:29:36.792Z,100648.56
2018-12-06T23:32:05.580Z,100649.75
2018-12-06T23:34:34.314Z,100651.11
2018-12-06T23:37:03.038Z,100645.98
2018-12-06T23:39:31.730Z,100644.57
2018-12-06T23:42:00.459Z,100652.23
2018-12-06T23:44:29.195Z,100657.08
2018-12-06T23:46:57.866Z,100648.97
2018-12-06T23:49:26.543Z,100649.69
2018-12-06T23:51:55.368Z,100643.62
2018-12-06T23:54:24.107Z,100653.36
2018-12-06T23:56:52.880Z,100651.33
2018-12-06T23:59:21.675Z,100655.50
